CheckWX is a tool to help pilots better visualize weather data.  It is not intended as a substitute for an official pre-flight weather briefing.

06:54:01 UTC

LRCT TAF
Câmpia Turzii Air Base Airport
Câmpia Turzii, Romania
TAF LRCT 180500Z 1806/1906 30004KT 9999 BKN120 BECMG 1809/1811 13005KT SCT040 TEMPO 1811/1815 VRB15KT 8000 TSRA BKN035CB

Jun-18@
06:00 UTC

Jun-18 @ 06:00 UTC

Jun-18@
09:00 UTC

Jun-18 @ 09:00 UTC

TAF LRCT 180500Z 1806/1906 30004KT 9999 BKN120
Wind
  • 300° at 4 KTS
Cloud Levels
  • Broken at 12,000' AGL

Jun-18@
09:00 UTC

Jun-18 @ 09:00 UTC

Jun-19@
06:00 UTC

Jun-19 @ 06:00 UTC

BECMG 1809/1811 13005KT SCT040

Becoming

Becoming Conditions expected by Tue, Jun 18, 2019 @ 11:00 UTC

Wind
  • 130° at 5 KTS
Cloud Levels
  • Scattered at 4,000' AGL

Jun-18@
11:00 UTC

Jun-18 @ 11:00 UTC

Jun-18@
15:00 UTC

Jun-18 @ 15:00 UTC

TEMPO 1811/1815 VRB15KT 8000 TSRA BKN035CB

Temporary

Temporary Changes expected for less than half the time period

Wind
  • Variable at 15 KTS
Conditions
Thunderstorm, Rain
Cloud Levels
  • Broken at 3,500' AGL